createdAt,value
2023-03-17T00:01:44.843Z,4.97
2023-03-17T00:04:13.048Z,4.90
2023-03-17T00:06:42.548Z,4.45
2023-03-17T00:09:14.707Z,5.25
2023-03-17T00:11:43.064Z,5.13
2023-03-17T00:14:10.843Z,4.95
2023-03-17T00:16:40.590Z,5.22
2023-03-17T00:19:08.441Z,5.40
2023-03-17T00:21:36.691Z,4.97
2023-03-17T00:24:07.353Z,5.55
2023-03-17T00:26:35.126Z,5.63
2023-03-17T00:29:02.865Z,5.30
2023-03-17T00:31:31.599Z,5.30
2023-03-17T00:34:00.503Z,5.70
2023-03-17T00:36:30.700Z,5.18
2023-03-17T00:38:58.887Z,5.43
2023-03-17T00:41:29.551Z,5.30
2023-03-17T00:43:57.687Z,5.20
2023-03-17T00:46:28.756Z,5.32
2023-03-17T00:48:56.737Z,4.88
2023-03-17T00:51:24.547Z,4.82
2023-03-17T00:53:52.806Z,4.60
2023-03-17T00:56:21.812Z,4.53
2023-03-17T00:58:50.890Z,4.72
2023-03-17T01:01:19.858Z,5.30
2023-03-17T01:03:49.648Z,4.82
2023-03-17T01:06:17.925Z,4.53
2023-03-17T01:08:46.570Z,4.95
2023-03-17T01:11:17.773Z,5.20
2023-03-17T01:13:45.741Z,5.00
2023-03-17T01:16:15.561Z,4.78
2023-03-17T01:18:44.010Z,4.70
2023-03-17T01:21:12.648Z,4.65
2023-03-17T01:23:40.398Z,4.70
2023-03-17T01:26:08.064Z,4.75
2023-03-17T01:28:36.065Z,4.60
2023-03-17T01:31:05.025Z,5.20
2023-03-17T01:33:35.176Z,5.10
2023-03-17T01:36:03.088Z,5.03
2023-03-17T01:38:31.266Z,5.10
2023-03-17T01:40:59.562Z,4.63
2023-03-17T01:43:29.549Z,4.85
2023-03-17T01:46:20.756Z,4.75
2023-03-17T01:48:54.222Z,4.57
2023-03-17T01:51:27.517Z,4.57
2023-03-17T01:53:56.218Z,4.30
2023-03-17T01:56:24.699Z,4.80
2023-03-17T01:58:56.145Z,5.30
2023-03-17T02:01:30.697Z,5.05
2023-03-17T02:04:00.884Z,4.93
2023-03-17T02:06:29.534Z,4.47
2023-03-17T02:08:57.427Z,5.00
2023-03-17T02:11:25.321Z,4.55
2023-03-17T02:13:53.661Z,5.40
2023-03-17T02:16:22.346Z,4.75
2023-03-17T02:18:50.082Z,4.97
2023-03-17T02:21:38.313Z,5.03
2023-03-17T02:24:10.719Z,5.38
2023-03-17T02:26:39.542Z,4.85
2023-03-17T02:29:07.376Z,4.75
2023-03-17T02:31:35.783Z,5.10
2023-03-17T02:34:03.703Z,4.60
2023-03-17T02:36:32.836Z,4.63
2023-03-17T02:39:01.045Z,4.63
2023-03-17T02:41:29.324Z,4.38
2023-03-17T02:43:57.106Z,4.93
2023-03-17T02:46:24.915Z,4.93
2023-03-17T02:48:52.787Z,5.00
2023-03-17T02:51:20.585Z,4.75
2023-03-17T02:53:49.669Z,4.50
2023-03-17T02:56:17.420Z,4.93
2023-03-17T02:58:45.487Z,4.88
2023-03-17T03:01:14.151Z,4.63
2023-03-17T03:03:41.956Z,4.85
2023-03-17T03:06:09.796Z,4.53
2023-03-17T03:08:37.805Z,4.80
2023-03-17T03:11:07.121Z,4.57
2023-03-17T03:13:34.988Z,4.63
2023-03-17T03:16:02.680Z,4.68
2023-03-17T03:18:30.565Z,4.78
2023-03-17T03:20:58.251Z,5.00
2023-03-17T03:23:26.003Z,5.35
2023-03-17T03:25:53.766Z,5.07
2023-03-17T03:28:23.063Z,5.05
2023-03-17T03:30:51.145Z,4.47
2023-03-17T03:33:19.110Z,4.80
2023-03-17T03:35:46.866Z,4.93
2023-03-17T03:38:14.694Z,5.53
2023-03-17T03:40:42.414Z,4.63
2023-03-17T03:43:21.867Z,4.93
2023-03-17T03:45:52.543Z,4.55
2023-03-17T03:48:20.475Z,4.70
2023-03-17T03:50:48.359Z,4.75
2023-03-17T03:53:16.471Z,4.90
2023-03-17T03:55:44.282Z,4.78
2023-03-17T03:58:12.336Z,4.97
2023-03-17T04:00:40.655Z,4.53
2023-03-17T04:03:09.841Z,5.03
2023-03-17T04:05:37.734Z,4.93
2023-03-17T04:08:06.720Z,4.65
2023-03-17T04:10:35.082Z,5.10
2023-03-17T04:13:03.001Z,5.35
2023-03-17T04:15:30.732Z,4.70
2023-03-17T04:17:58.497Z,5.03
2023-03-17T04:20:27.756Z,4.90
2023-03-17T04:22:55.532Z,4.85
2023-03-17T04:25:23.307Z,4.97
2023-03-17T04:27:51.047Z,5.10
2023-03-17T04:30:19.116Z,4.80
2023-03-17T04:32:47.626Z,4.80
2023-03-17T04:35:17.120Z,4.97
2023-03-17T04:37:46.736Z,4.97
2023-03-17T04:40:15.607Z,4.60
2023-03-17T04:42:43.385Z,4.97
2023-03-17T04:45:14.072Z,4.55
2023-03-17T04:47:42.127Z,5.00
2023-03-17T04:50:11.447Z,4.93
2023-03-17T04:52:39.203Z,5.07
2023-03-17T04:55:09.475Z,4.78
2023-03-17T04:57:37.815Z,5.30
2023-03-17T05:00:07.274Z,4.75
2023-03-17T05:02:35.360Z,4.80
2023-03-17T05:05:03.168Z,4.90
2023-03-17T05:07:33.928Z,5.18
2023-03-17T05:10:02.128Z,4.60
2023-03-17T05:12:31.199Z,4.60
2023-03-17T05:14:58.900Z,4.63
2023-03-17T05:17:26.579Z,4.72
2023-03-17T05:19:54.299Z,5.25
2023-03-17T05:22:22.054Z,4.93
2023-03-17T05:24:49.749Z,4.65
2023-03-17T05:27:17.479Z,4.60
2023-03-17T05:29:46.574Z,5.00
2023-03-17T05:32:14.464Z,5.28
2023-03-17T05:34:42.173Z,5.38
2023-03-17T05:37:10.278Z,4.85
2023-03-17T05:39:38.409Z,4.80
2023-03-17T05:42:06.380Z,4.55
2023-03-17T05:44:34.225Z,6.05
2023-03-17T05:47:03.292Z,5.60
2023-03-17T05:49:31.507Z,4.82
2023-03-17T05:51:59.261Z,5.10
2023-03-17T05:54:27.676Z,5.20
2023-03-17T05:56:55.474Z,5.07
2023-03-17T05:59:23.324Z,5.05
2023-03-17T06:01:51.278Z,4.70
2023-03-17T06:04:20.376Z,5.03
2023-03-17T06:06:48.609Z,5.28
2023-03-17T06:09:18.101Z,5.10
2023-03-17T06:11:45.929Z,4.72
2023-03-17T06:14:14.601Z,4.70
2023-03-17T06:16:42.333Z,4.88
2023-03-17T06:19:10.271Z,5.30
2023-03-17T06:21:39.500Z,5.45
2023-03-17T06:24:08.437Z,5.10
2023-03-17T06:26:37.199Z,5.43
2023-03-17T06:29:05.409Z,5.85
2023-03-17T06:31:33.118Z,6.78
2023-03-17T06:34:00.906Z,7.30
2023-03-17T06:36:28.586Z,6.85
2023-03-17T06:38:57.868Z,6.20
2023-03-17T06:41:25.715Z,5.57
2023-03-17T06:43:53.512Z,5.45
2023-03-17T06:46:21.625Z,5.30
2023-03-17T06:48:49.442Z,6.03
2023-03-17T06:51:17.222Z,14.52
2023-03-17T06:53:44.980Z,13.93
2023-03-17T06:56:28.806Z,7.60
2023-03-17T06:58:57.760Z,6.28
2023-03-17T07:01:25.766Z,6.78
2023-03-17T07:03:53.485Z,6.10
2023-03-17T07:06:23.377Z,6.32
2023-03-17T07:08:52.377Z,6.22
2023-03-17T07:11:23.581Z,5.63
2023-03-17T07:13:51.994Z,5.70
2023-03-17T07:16:21.043Z,6.78
2023-03-17T07:18:50.616Z,8.55
2023-03-17T07:21:18.623Z,9.57
2023-03-17T07:23:46.411Z,8.93
2023-03-17T07:26:14.581Z,8.45
2023-03-17T07:28:44.623Z,7.15
2023-03-17T07:31:14.335Z,7.13
2023-03-17T07:33:42.556Z,7.55
2023-03-17T07:36:10.712Z,7.00
2023-03-17T07:38:38.566Z,7.05
2023-03-17T07:41:09.910Z,7.20
2023-03-17T07:43:38.581Z,6.97
2023-03-17T07:46:08.573Z,7.00
2023-03-17T07:48:40.840Z,5.32
2023-03-17T07:51:11.890Z,5.15
2023-03-17T07:53:39.706Z,4.80
2023-03-17T07:56:08.078Z,5.22
2023-03-17T07:58:36.121Z,4.75
2023-03-17T08:01:04.992Z,5.22
2023-03-17T08:03:34.410Z,4.88
2023-03-17T08:06:08.618Z,5.28
2023-03-17T08:08:37.011Z,4.70
2023-03-17T08:11:07.639Z,4.80
2023-03-17T08:13:35.827Z,5.00
2023-03-17T08:16:03.699Z,4.65
2023-03-17T08:18:32.028Z,4.70
2023-03-17T08:21:02.150Z,4.40
2023-03-17T08:23:30.047Z,4.20
2023-03-17T08:25:58.895Z,5.07
2023-03-17T08:28:27.139Z,4.90
2023-03-17T08:30:55.857Z,4.55
2023-03-17T08:33:23.780Z,4.78
2023-03-17T08:35:51.652Z,4.47
2023-03-17T08:38:20.786Z,4.63
2023-03-17T08:40:50.606Z,4.70
2023-03-17T08:43:18.677Z,4.57
2023-03-17T08:45:46.555Z,4.90
2023-03-17T08:48:14.382Z,4.70
2023-03-17T08:50:42.266Z,4.50
2023-03-17T08:53:10.361Z,4.90
2023-03-17T08:55:39.953Z,4.85
2023-03-17T08:58:07.766Z,4.70
2023-03-17T09:00:36.240Z,4.75
2023-03-17T09:03:04.168Z,4.97
2023-03-17T09:05:32.687Z,5.28
2023-03-17T09:08:00.959Z,5.20
2023-03-17T09:10:29.220Z,5.20
2023-03-17T09:13:03.162Z,4.68
2023-03-17T09:15:31.408Z,4.50
2023-03-17T09:17:59.306Z,5.30
2023-03-17T09:20:27.279Z,5.03
2023-03-17T09:22:56.437Z,5.65
2023-03-17T09:25:24.701Z,5.25
2023-03-17T09:27:52.700Z,5.38
2023-03-17T09:30:22.102Z,5.60
2023-03-17T09:32:49.942Z,5.20
2023-03-17T09:35:17.936Z,5.65
2023-03-17T09:37:45.623Z,5.18
2023-03-17T09:40:17.585Z,5.25
2023-03-17T09:42:58.196Z,6.15
2023-03-17T09:45:34.660Z,5.90
2023-03-17T09:48:23.754Z,5.80
2023-03-17T09:50:57.579Z,6.40
2023-03-17T09:53:34.277Z,4.63
2023-03-17T09:56:06.861Z,3.95
2023-03-17T09:58:35.608Z,4.20
2023-03-17T10:01:06.403Z,4.18
2023-03-17T10:03:35.229Z,4.35
2023-03-17T10:06:18.671Z,4.30
2023-03-17T10:08:55.067Z,4.38
2023-03-17T10:11:34.026Z,4.60
2023-03-17T10:14:04.527Z,4.32
2023-03-17T10:16:41.505Z,4.30
2023-03-17T10:19:22.373Z,4.57
2023-03-17T10:21:54.764Z,4.35
2023-03-17T10:24:24.507Z,5.07
2023-03-17T10:26:55.247Z,4.85
2023-03-17T10:29:24.865Z,4.80
2023-03-17T10:31:58.292Z,4.75
2023-03-17T10:34:29.752Z,5.05
2023-03-17T10:37:02.582Z,5.00
2023-03-17T10:39:32.717Z,4.85
2023-03-17T10:42:10.075Z,5.03
2023-03-17T10:44:43.885Z,5.25
2023-03-17T10:47:31.578Z,4.32
2023-03-17T10:50:04.767Z,4.78
2023-03-17T10:52:39.605Z,4.60
2023-03-17T10:55:10.640Z,4.75
2023-03-17T10:57:39.821Z,5.07
2023-03-17T11:00:19.873Z,4.20
2023-03-17T11:02:55.964Z,4.75
2023-03-17T11:05:26.534Z,4.63
2023-03-17T11:08:07.738Z,4.25
2023-03-17T11:10:38.583Z,5.25
2023-03-17T11:13:06.714Z,4.72
2023-03-17T11:15:37.522Z,4.60
2023-03-17T11:18:15.760Z,4.50
2023-03-17T11:20:51.182Z,4.68
2023-03-17T11:23:39.574Z,4.57
2023-03-17T11:26:18.943Z,4.70
2023-03-17T11:28:52.945Z,4.70
2023-03-17T11:31:27.984Z,4.55
2023-03-17T11:34:05.369Z,4.75
2023-03-17T11:36:46.045Z,4.30
2023-03-17T11:39:17.199Z,4.40
2023-03-17T11:42:06.924Z,4.82
2023-03-17T11:45:18.204Z,4.35
2023-03-17T11:48:00.960Z,4.82
2023-03-17T11:50:38.359Z,6.00
2023-03-17T11:53:18.829Z,4.93
2023-03-17T11:55:50.172Z,4.78
2023-03-17T11:58:28.587Z,4.38
2023-03-17T12:01:00.406Z,4.18
2023-03-17T12:03:34.430Z,5.10
2023-03-17T12:06:08.666Z,4.20
2023-03-17T12:08:40.927Z,4.60
2023-03-17T12:11:12.765Z,4.90
2023-03-17T12:13:45.552Z,4.50
2023-03-17T12:16:19.299Z,4.75
2023-03-17T12:18:55.825Z,4.68
2023-03-17T12:21:30.993Z,4.70
2023-03-17T12:24:03.035Z,4.63
2023-03-17T12:26:36.209Z,5.00
2023-03-17T12:29:10.487Z,5.20
2023-03-17T12:31:42.525Z,4.93
2023-03-17T12:34:20.377Z,5.07
2023-03-17T12:36:50.717Z,5.18
2023-03-17T12:39:22.944Z,5.00
2023-03-17T12:42:16.612Z,5.00
2023-03-17T12:45:15.974Z,5.50
2023-03-17T12:47:58.554Z,5.82
2023-03-17T12:50:45.934Z,5.53
2023-03-17T12:53:27.356Z,5.32
2023-03-17T12:55:58.938Z,4.93
2023-03-17T12:58:33.600Z,5.15
2023-03-17T13:01:10.747Z,5.32
2023-03-17T13:03:47.772Z,5.32
2023-03-17T13:06:21.258Z,5.25
2023-03-17T13:08:51.976Z,5.32
2023-03-17T13:11:27.312Z,5.60
2023-03-17T13:14:12.326Z,5.30
2023-03-17T13:16:41.799Z,5.30
2023-03-17T13:19:18.801Z,5.85
2023-03-17T13:21:51.848Z,6.70
2023-03-17T13:24:43.488Z,6.05
2023-03-17T13:27:13.901Z,5.72
2023-03-17T13:29:47.717Z,5.85
2023-03-17T13:32:39.729Z,6.10
2023-03-17T13:35:38.742Z,5.35
2023-03-17T13:38:30.509Z,6.10
2023-03-17T13:41:17.199Z,5.30
2023-03-17T13:44:03.151Z,4.78
2023-03-17T13:46:40.929Z,5.22
2023-03-17T13:49:22.460Z,4.97
2023-03-17T13:51:59.825Z,5.03
2023-03-17T13:54:34.312Z,5.13
2023-03-17T13:57:26.264Z,5.20
2023-03-17T14:00:17.725Z,5.28
2023-03-17T14:02:49.809Z,5.20
2023-03-17T14:05:25.439Z,5.45
2023-03-17T14:07:57.520Z,5.57
2023-03-17T14:10:27.418Z,5.47
2023-03-17T14:13:01.907Z,5.30
2023-03-17T14:15:33.827Z,5.18
2023-03-17T14:18:05.945Z,5.35
2023-03-17T14:20:33.853Z,5.70
2023-03-17T14:23:04.035Z,5.10
2023-03-17T14:25:34.955Z,5.32
2023-03-17T14:28:09.420Z,5.15
2023-03-17T14:30:38.686Z,5.47
2023-03-17T14:33:14.559Z,5.45
2023-03-17T14:35:44.294Z,5.20
2023-03-17T14:38:20.850Z,5.00
2023-03-17T14:40:49.086Z,5.38
2023-03-17T14:43:18.463Z,5.28
2023-03-17T14:45:51.370Z,5.28
2023-03-17T14:48:26.591Z,5.25
2023-03-17T14:50:56.463Z,5.95
2023-03-17T14:53:26.827Z,5.20
2023-03-17T14:55:54.788Z,5.60
2023-03-17T14:58:26.316Z,5.68
2023-03-17T15:00:58.357Z,5.00
2023-03-17T15:03:31.564Z,5.63
2023-03-17T15:06:08.635Z,4.78
2023-03-17T15:08:46.969Z,5.65
2023-03-17T15:11:21.346Z,5.85
2023-03-17T15:13:54.005Z,6.25
2023-03-17T15:18:59.129Z,5.72
2023-03-17T15:21:33.653Z,5.05
2023-03-17T15:24:06.207Z,5.13
2023-03-17T15:26:34.034Z,5.32
2023-03-17T15:29:03.196Z,5.78
2023-03-17T15:31:31.075Z,5.68
2023-03-17T15:33:59.585Z,5.82
2023-03-17T15:36:32.764Z,6.03
2023-03-17T15:39:01.585Z,5.82
2023-03-17T15:41:29.693Z,6.82
2023-03-17T15:43:57.543Z,7.32
2023-03-17T15:46:31.009Z,7.32
2023-03-17T15:48:59.257Z,6.68
2023-03-17T15:51:27.748Z,5.40
2023-03-17T15:53:55.462Z,5.88
2023-03-17T15:56:23.286Z,5.72
2023-03-17T15:58:52.686Z,6.32
2023-03-17T16:01:21.483Z,5.93
2023-03-17T16:03:51.079Z,5.60
2023-03-17T16:06:21.441Z,6.07
2023-03-17T16:08:50.075Z,5.28
2023-03-17T16:11:19.520Z,5.45
2023-03-17T16:13:48.653Z,5.93
2023-03-17T16:16:21.421Z,5.32
2023-03-17T16:18:52.602Z,5.70
2023-03-17T16:21:21.340Z,6.03
2023-03-17T16:23:50.428Z,6.03
2023-03-17T16:26:18.568Z,5.25
2023-03-17T16:28:47.809Z,5.50
2023-03-17T16:31:25.203Z,6.18
2023-03-17T16:33:55.224Z,5.43
2023-03-17T16:36:25.534Z,5.82
2023-03-17T16:38:53.474Z,6.03
2023-03-17T16:41:24.087Z,5.65
2023-03-17T16:43:55.266Z,5.68
2023-03-17T16:46:23.725Z,7.70
2023-03-17T16:48:51.909Z,6.93
2023-03-17T16:51:21.200Z,6.45
2023-03-17T16:53:49.462Z,6.93
2023-03-17T16:56:19.535Z,7.95
2023-03-17T16:58:48.246Z,8.00
2023-03-17T17:01:19.302Z,9.27
2023-03-17T17:03:47.834Z,13.38
2023-03-17T17:06:16.274Z,12.32
2023-03-17T17:08:47.253Z,9.15
2023-03-17T17:11:16.077Z,9.18
2023-03-17T17:13:44.926Z,8.27
2023-03-17T17:16:22.059Z,8.50
2023-03-17T17:18:50.405Z,8.20
2023-03-17T17:21:18.274Z,8.02
2023-03-17T17:23:47.834Z,8.48
2023-03-17T17:26:15.945Z,9.50
2023-03-17T17:28:43.801Z,11.48
2023-03-17T17:31:12.293Z,12.30
2023-03-17T17:33:40.704Z,13.38
2023-03-17T17:36:14.606Z,14.15
2023-03-17T17:38:44.506Z,12.15
2023-03-17T17:41:17.022Z,11.02
2023-03-17T17:46:17.612Z,13.10
2023-03-17T17:48:45.889Z,15.50
2023-03-17T17:51:13.805Z,15.95
2023-03-17T17:53:42.010Z,12.70
2023-03-17T17:56:15.815Z,11.52
2023-03-17T17:58:44.171Z,12.25
2023-03-17T18:01:13.599Z,12.40
2023-03-17T18:03:42.962Z,13.35
2023-03-17T18:06:11.727Z,12.77
2023-03-17T18:08:40.507Z,11.98
2023-03-17T18:11:08.732Z,11.88
2023-03-17T18:13:39.040Z,12.40
2023-03-17T18:16:09.974Z,12.77
2023-03-17T18:18:40.681Z,13.70
2023-03-17T18:21:08.551Z,13.68
2023-03-17T18:23:37.344Z,11.55
2023-03-17T18:26:06.673Z,10.00
2023-03-17T18:28:34.904Z,9.98
2023-03-17T18:31:09.596Z,9.02
2023-03-17T18:33:37.776Z,9.55
2023-03-17T18:36:06.797Z,11.55
2023-03-17T18:38:34.782Z,10.48
2023-03-17T18:41:04.083Z,10.50
2023-03-17T18:43:31.930Z,9.82
2023-03-17T18:46:00.129Z,12.23
2023-03-17T18:48:29.622Z,12.63
2023-03-17T18:50:57.742Z,15.23
2023-03-17T18:53:26.116Z,11.20
2023-03-17T18:55:54.042Z,10.25
2023-03-17T18:58:23.530Z,8.93
2023-03-17T19:00:53.318Z,8.85
2023-03-17T19:03:21.397Z,8.63
2023-03-17T19:05:51.613Z,8.43
2023-03-17T19:08:19.781Z,7.60
2023-03-17T19:10:48.277Z,7.97
2023-03-17T19:13:17.034Z,8.25
2023-03-17T19:15:44.817Z,8.70
2023-03-17T19:18:12.602Z,9.63
2023-03-17T19:20:40.903Z,10.80
2023-03-17T19:23:10.126Z,13.93
2023-03-17T19:25:38.083Z,12.70
2023-03-17T19:28:06.419Z,13.45
2023-03-17T19:30:34.868Z,16.08
2023-03-17T19:33:03.057Z,15.52
2023-03-17T19:35:30.922Z,16.50
2023-03-17T19:37:59.010Z,15.45
2023-03-17T19:40:28.388Z,17.50
2023-03-17T19:42:56.269Z,27.60
2023-03-17T19:45:26.132Z,26.05
2023-03-17T19:47:54.290Z,34.85
2023-03-17T19:50:22.132Z,22.70
2023-03-17T19:52:53.020Z,23.30
2023-03-17T19:55:21.726Z,25.20
2023-03-17T19:57:51.732Z,21.88
2023-03-17T20:00:20.966Z,16.90
2023-03-17T20:02:52.114Z,20.27
2023-03-17T20:05:20.019Z,14.85
2023-03-17T20:07:48.390Z,13.50
2023-03-17T20:10:16.160Z,14.32
2023-03-17T20:12:45.935Z,20.00
2023-03-17T20:15:16.464Z,17.45
2023-03-17T20:17:44.293Z,13.48
2023-03-17T20:20:14.517Z,14.70
2023-03-17T20:22:43.668Z,13.00
2023-03-17T20:25:12.492Z,12.73
2023-03-17T20:27:43.577Z,14.38
2023-03-17T20:30:13.152Z,13.68
2023-03-17T20:32:42.547Z,14.55
2023-03-17T20:35:11.130Z,14.70
2023-03-17T20:37:39.517Z,13.10
2023-03-17T20:40:09.934Z,12.90
2023-03-17T20:42:37.774Z,13.18
2023-03-17T20:45:07.463Z,14.55
2023-03-17T20:47:35.535Z,12.13
2023-03-17T20:50:06.282Z,12.43
2023-03-17T20:52:34.099Z,12.07
2023-03-17T20:55:02.565Z,10.90
2023-03-17T20:57:30.377Z,9.93
2023-03-17T20:59:58.240Z,10.38
2023-03-17T21:02:26.445Z,9.57
2023-03-17T21:04:54.249Z,9.77
2023-03-17T21:07:23.613Z,9.75
2023-03-17T21:09:52.020Z,10.20
2023-03-17T21:12:21.382Z,10.77
2023-03-17T21:14:49.349Z,10.75
2023-03-17T21:17:18.370Z,10.40
2023-03-17T21:19:47.413Z,10.48
2023-03-17T21:22:16.056Z,10.57
2023-03-17T21:24:45.342Z,10.43
2023-03-17T21:27:13.843Z,11.18
2023-03-17T21:29:41.687Z,10.82
2023-03-17T21:32:09.689Z,13.65
2023-03-17T21:34:38.091Z,12.30
2023-03-17T21:37:06.181Z,11.07
2023-03-17T21:39:34.064Z,12.60
2023-03-17T21:42:03.793Z,12.25
2023-03-17T21:44:32.414Z,11.52
2023-03-17T21:47:02.591Z,12.07
2023-03-17T21:49:30.404Z,10.73
2023-03-17T21:51:58.250Z,10.30
2023-03-17T21:54:26.098Z,11.00
2023-03-17T21:56:53.986Z,10.77
2023-03-17T21:59:23.600Z,11.60
2023-03-17T22:01:53.073Z,10.30
2023-03-17T22:04:21.153Z,10.07
2023-03-17T22:06:49.006Z,10.02
2023-03-17T22:09:19.134Z,9.57
2023-03-17T22:11:47.059Z,9.73
2023-03-17T22:14:19.888Z,9.18
2023-03-17T22:16:49.798Z,9.95
2023-03-17T22:19:20.983Z,10.07
2023-03-17T22:21:49.073Z,9.85
2023-03-17T22:24:17.339Z,9.85
2023-03-17T22:26:45.239Z,9.65
2023-03-17T22:29:13.593Z,10.10
2023-03-17T22:31:41.984Z,10.40
2023-03-17T22:34:11.262Z,12.55
2023-03-17T22:36:39.038Z,18.45
2023-03-17T22:39:08.836Z,13.88
2023-03-17T22:41:36.743Z,15.85
2023-03-17T22:44:05.591Z,15.23
2023-03-17T22:46:33.412Z,13.55
2023-03-17T22:49:01.218Z,13.32
2023-03-17T22:51:30.594Z,14.48
2023-03-17T22:53:58.804Z,14.27
2023-03-17T22:56:26.823Z,13.95
2023-03-17T22:58:55.757Z,13.75
2023-03-17T23:01:25.817Z,13.45
2023-03-17T23:03:54.319Z,13.35
2023-03-17T23:06:22.579Z,12.90
2023-03-17T23:08:52.203Z,12.85
2023-03-17T23:11:22.226Z,13.85
2023-03-17T23:13:51.420Z,13.80
2023-03-17T23:16:20.277Z,12.75
2023-03-17T23:18:48.117Z,13.02
2023-03-17T23:21:21.921Z,12.48
2023-03-17T23:23:51.459Z,10.90
2023-03-17T23:26:19.361Z,11.52
2023-03-17T23:28:47.604Z,11.85
2023-03-17T23:31:15.979Z,10.50
2023-03-17T23:33:43.903Z,11.00
2023-03-17T23:36:14.064Z,10.30
2023-03-17T23:38:42.739Z,11.30
2023-03-17T23:41:13.484Z,11.23
2023-03-17T23:43:41.756Z,11.63
2023-03-17T23:46:09.618Z,11.05
2023-03-17T23:48:38.058Z,11.10
2023-03-17T23:51:08.030Z,10.43
2023-03-17T23:53:35.798Z,11.13
2023-03-17T23:56:05.438Z,11.05
2023-03-17T23:58:34.896Z,11.55
